sensor_id;sensor_type;location;lat;lon;timestamp;P1;durP1;ratioP1;P2;durP2;ratioP2
31686;SDS011;18285;51.330;4.946;2023-06-26T00:01:23;3.70;;;2.20;;
31686;SDS011;18285;51.330;4.946;2023-06-26T00:25:34;2.37;;;2.17;;
31686;SDS011;18285;51.330;4.946;2023-06-26T00:49:45;3.70;;;2.40;;
31686;SDS011;18285;51.330;4.946;2023-06-26T01:13:56;3.07;;;2.13;;
31686;SDS011;18285;51.330;4.946;2023-06-26T01:38:17;2.20;;;2.00;;
31686;SDS011;18285;51.330;4.946;2023-06-26T02:02:30;2.40;;;2.20;;
31686;SDS011;18285;51.330;4.946;2023-06-26T02:26:40;2.13;;;1.93;;
31686;SDS011;18285;51.330;4.946;2023-06-26T02:50:51;2.37;;;1.83;;
31686;SDS011;18285;51.330;4.946;2023-06-26T03:15:02;1.90;;;1.70;;
31686;SDS011;18285;51.330;4.946;2023-06-26T03:39:13;2.40;;;1.80;;
31686;SDS011;18285;51.330;4.946;2023-06-26T04:03:24;2.00;;;1.55;;
31686;SDS011;18285;51.330;4.946;2023-06-26T04:27:34;1.65;;;1.52;;
31686;SDS011;18285;51.330;4.946;2023-06-26T04:51:45;1.95;;;1.40;;
31686;SDS011;18285;51.330;4.946;2023-06-26T05:15:57;1.92;;;1.50;;
31686;SDS011;18285;51.330;4.946;2023-06-26T05:40:08;9.88;;;2.78;;
31686;SDS011;18285;51.330;4.946;2023-06-26T06:04:19;17.43;;;3.13;;
31686;SDS011;18285;51.330;4.946;2023-06-26T06:28:29;13.20;;;3.00;;
31686;SDS011;18285;51.330;4.946;2023-06-26T06:52:40;4.40;;;1.70;;
31686;SDS011;18285;51.330;4.946;2023-06-26T07:16:51;2.70;;;1.00;;
31686;SDS011;18285;51.330;4.946;2023-06-26T07:41:02;2.90;;;0.93;;
31686;SDS011;18285;51.330;4.946;2023-06-26T08:05:12;1.98;;;1.00;;
31686;SDS011;18285;51.330;4.946;2023-06-26T08:29:23;1.25;;;0.75;;
31686;SDS011;18285;51.330;4.946;2023-06-26T09:18:10;1.02;;;0.60;;
31686;SDS011;18285;51.330;4.946;2023-06-26T09:42:21;2.27;;;0.90;;
31686;SDS011;18285;51.330;4.946;2023-06-26T10:06:33;1.42;;;0.68;;
31686;SDS011;18285;51.330;4.946;2023-06-26T10:30:47;1.77;;;0.70;;
31686;SDS011;18285;51.330;4.946;2023-06-26T10:55:01;1.88;;;0.70;;
31686;SDS011;18285;51.330;4.946;2023-06-26T11:19:13;1.37;;;0.80;;
31686;SDS011;18285;51.330;4.946;2023-06-26T11:43:24;6.40;;;1.10;;
31686;SDS011;18285;51.330;4.946;2023-06-26T12:07:35;2.47;;;0.80;;
31686;SDS011;18285;51.330;4.946;2023-06-26T12:31:51;1.17;;;0.80;;
31686;SDS011;18285;51.330;4.946;2023-06-26T12:56:02;1.67;;;0.70;;
31686;SDS011;18285;51.330;4.946;2023-06-26T13:20:13;1.13;;;0.60;;
31686;SDS011;18285;51.330;4.946;2023-06-26T13:44:24;1.00;;;0.60;;
31686;SDS011;18285;51.330;4.946;2023-06-26T14:08:34;0.70;;;0.70;;
31686;SDS011;18285;51.330;4.946;2023-06-26T14:32:45;1.60;;;0.60;;
31686;SDS011;18285;51.330;4.946;2023-06-26T14:56:56;2.17;;;0.87;;
31686;SDS011;18285;51.330;4.946;2023-06-26T15:21:07;1.03;;;0.77;;
31686;SDS011;18285;51.330;4.946;2023-06-26T15:45:17;1.40;;;0.80;;
31686;SDS011;18285;51.330;4.946;2023-06-26T16:09:28;3.97;;;0.83;;
31686;SDS011;18285;51.330;4.946;2023-06-26T16:33:39;2.57;;;0.90;;
31686;SDS011;18285;51.330;4.946;2023-06-26T16:57:50;4.93;;;1.07;;
31686;SDS011;18285;51.330;4.946;2023-06-26T17:22:01;4.77;;;1.20;;
31686;SDS011;18285;51.330;4.946;2023-06-26T17:46:14;7.55;;;1.00;;
31686;SDS011;18285;51.330;4.946;2023-06-26T18:10:25;4.33;;;1.13;;
31686;SDS011;18285;51.330;4.946;2023-06-26T18:34:35;1.33;;;0.67;;
31686;SDS011;18285;51.330;4.946;2023-06-26T18:58:46;1.53;;;0.90;;
31686;SDS011;18285;51.330;4.946;2023-06-26T19:22:57;1.83;;;0.83;;
31686;SDS011;18285;51.330;4.946;2023-06-26T19:47:07;1.77;;;0.97;;
31686;SDS011;18285;51.330;4.946;2023-06-26T20:11:18;2.43;;;1.10;;
31686;SDS011;18285;51.330;4.946;2023-06-26T20:35:29;3.87;;;1.23;;
31686;SDS011;18285;51.330;4.946;2023-06-26T20:59:39;3.87;;;1.23;;
31686;SDS011;18285;51.330;4.946;2023-06-26T21:23:50;2.13;;;1.20;;
31686;SDS011;18285;51.330;4.946;2023-06-26T21:48:01;1.73;;;1.20;;
31686;SDS011;18285;51.330;4.946;2023-06-26T22:12:12;2.23;;;0.80;;
31686;SDS011;18285;51.330;4.946;2023-06-26T22:36:23;1.47;;;0.80;;
31686;SDS011;18285;51.330;4.946;2023-06-26T23:00:36;1.98;;;1.05;;
31686;SDS011;18285;51.330;4.946;2023-06-26T23:24:47;1.90;;;1.07;;
31686;SDS011;18285;51.330;4.946;2023-06-26T23:48:59;1.85;;;0.90;;
